createdAt,value
2023-03-07T06:03:05.796Z,22.59
2023-03-07T06:04:06.836Z,22.81
2023-03-07T06:05:06.821Z,22.87
2023-03-07T06:06:06.846Z,22.92
2023-03-07T06:07:05.859Z,22.94
2023-03-07T06:08:06.904Z,22.98
2023-03-07T06:09:06.907Z,23.00
2023-03-07T06:10:06.924Z,23.01
2023-03-07T06:11:06.988Z,23.03
2023-03-07T06:12:07.031Z,23.04
2023-03-07T06:13:07.090Z,23.04
2023-03-07T06:14:07.137Z,23.05
2023-03-07T06:15:07.160Z,23.05
2023-03-07T06:16:07.252Z,23.05
2023-03-07T06:17:07.236Z,23.06
2023-03-07T06:18:06.284Z,23.06
2023-03-07T06:19:06.335Z,23.06
2023-03-07T06:20:06.356Z,23.06
2023-03-07T06:21:07.422Z,23.06
2023-03-07T06:22:07.439Z,23.06
2023-03-07T06:23:06.479Z,23.07
2023-03-07T06:24:07.509Z,23.07
2023-03-07T06:25:07.549Z,23.07
2023-03-07T06:26:07.572Z,23.06
2023-03-07T06:27:07.615Z,23.07
2023-03-07T06:28:07.662Z,23.08
2023-03-07T06:29:07.682Z,23.07
2023-03-07T06:30:07.717Z,23.08
2023-03-07T06:31:07.803Z,23.08
2023-03-07T06:32:07.879Z,23.08
2023-03-07T06:33:07.808Z,23.09
2023-03-07T06:34:07.849Z,23.09
2023-03-07T06:35:07.906Z,23.08
2023-03-07T06:36:08.060Z,23.09
2023-03-07T06:37:07.937Z,23.10
2023-03-07T06:38:07.962Z,23.10
2023-03-07T06:39:08.003Z,23.10
2023-03-07T06:40:07.022Z,23.10
2023-03-07T06:41:07.043Z,23.11
2023-03-07T06:42:07.090Z,23.12
2023-03-07T06:43:08.113Z,23.12
2023-03-07T06:44:07.156Z,23.12
2023-03-07T06:45:08.201Z,23.12
2023-03-07T06:46:08.288Z,23.12
2023-03-07T06:47:07.255Z,23.12
2023-03-07T06:48:08.277Z,23.13
2023-03-07T06:49:08.326Z,23.13
2023-03-07T06:50:08.390Z,23.13
2023-03-07T06:51:08.491Z,23.14
2023-03-07T06:52:08.425Z,23.13
2023-03-07T06:53:08.448Z,23.13
2023-03-07T06:54:08.481Z,23.14
2023-03-07T06:55:08.492Z,23.14
2023-03-07T06:56:08.592Z,23.14
2023-03-07T06:57:08.551Z,23.14
2023-03-07T06:58:08.580Z,23.15
2023-03-07T06:59:08.969Z,23.15
2023-03-07T07:00:08.635Z,23.16
2023-03-07T07:01:08.657Z,23.16
2023-03-07T07:02:08.885Z,23.15
2023-03-07T07:03:08.877Z,23.16
2023-03-07T07:04:08.740Z,23.16
2023-03-07T07:05:07.769Z,23.17
2023-03-07T07:06:08.790Z,23.17
2023-03-07T07:07:08.833Z,23.17
2023-03-07T07:08:08.838Z,23.17
2023-03-07T07:09:07.859Z,23.18
2023-03-07T07:10:07.870Z,23.23
2023-03-07T07:11:08.890Z,23.29
2023-03-07T07:12:08.911Z,23.27
2023-03-07T07:13:08.936Z,23.26
2023-03-07T07:14:08.969Z,23.26
2023-03-07T07:15:09.030Z,23.25
2023-03-07T07:16:09.065Z,23.24
2023-03-07T07:17:09.046Z,23.24
2023-03-07T07:18:11.373Z,23.24
2023-03-07T07:19:09.050Z,23.24
2023-03-07T07:20:09.032Z,23.25
2023-03-07T07:21:08.037Z,23.25
2023-03-07T07:22:09.025Z,23.24
2023-03-07T07:23:09.101Z,23.24
2023-03-07T07:24:09.017Z,23.24
2023-03-07T07:25:08.994Z,23.24
2023-03-07T07:26:09.014Z,23.24
2023-03-07T07:27:10.884Z,23.24
2023-03-07T07:28:08.978Z,23.24
2023-03-07T07:29:08.969Z,23.25
2023-03-07T07:30:08.976Z,23.26
2023-03-07T07:31:08.963Z,23.26
2023-03-07T07:32:09.251Z,23.26
2023-03-07T07:33:09.121Z,23.27
2023-03-07T07:34:08.943Z,23.27
2023-03-07T07:35:08.936Z,23.27
2023-03-07T07:36:08.999Z,23.27
2023-03-07T07:37:08.913Z,23.29
2023-03-07T07:38:08.915Z,23.29
2023-03-07T07:39:08.943Z,23.30
2023-03-07T07:40:08.905Z,23.31
2023-03-07T07:41:08.910Z,23.32
2023-03-07T07:42:08.899Z,23.33
2023-03-07T07:43:08.912Z,23.34
2023-03-07T07:44:07.885Z,23.35
2023-03-07T07:45:07.884Z,23.35
2023-03-07T07:46:08.957Z,23.36
2023-03-07T07:47:08.915Z,23.35
2023-03-07T07:48:08.842Z,23.37
2023-03-07T07:49:08.862Z,23.37
2023-03-07T07:50:08.826Z,23.38
2023-03-07T07:51:08.830Z,23.38
2023-03-07T07:52:08.820Z,23.38
2023-03-07T07:53:08.818Z,23.39
2023-03-07T07:54:08.978Z,23.40
2023-03-07T07:55:08.857Z,23.40
2023-03-07T07:56:08.801Z,23.40
2023-03-07T07:57:08.801Z,23.41
2023-03-07T07:58:08.796Z,23.41
2023-03-07T07:59:07.797Z,23.41
2023-03-07T08:00:08.772Z,23.42
2023-03-07T08:01:08.764Z,23.42
2023-03-07T08:02:08.774Z,23.43
2023-03-07T08:03:08.868Z,23.44
2023-03-07T08:04:08.759Z,23.44
2023-03-07T08:05:08.739Z,23.45
2023-03-07T08:06:08.821Z,23.46
2023-03-07T08:07:08.736Z,23.46
2023-03-07T08:08:08.729Z,23.45
2023-03-07T08:09:08.713Z,23.46
2023-03-07T08:10:08.715Z,23.48
2023-03-07T08:11:08.939Z,23.49
2023-03-07T08:12:07.693Z,23.48
2023-03-07T08:13:08.698Z,23.49
2023-03-07T08:14:07.696Z,23.50
2023-03-07T08:15:08.688Z,23.50
2023-03-07T08:16:08.722Z,23.51
2023-03-07T08:17:07.681Z,23.51
2023-03-07T08:18:07.665Z,23.51
2023-03-07T08:19:08.664Z,23.52
2023-03-07T08:20:08.663Z,23.51
2023-03-07T08:21:08.661Z,23.51
2023-03-07T08:22:08.638Z,23.50
2023-03-07T08:23:08.633Z,23.49
2023-03-07T08:24:08.638Z,23.56
2023-03-07T08:25:08.629Z,23.55
2023-03-07T08:26:07.611Z,23.55
2023-03-07T08:27:08.638Z,23.54
2023-03-07T08:28:08.618Z,23.54
2023-03-07T08:29:08.590Z,23.54
2023-03-07T08:30:08.592Z,23.54
2023-03-07T08:31:08.715Z,23.55
2023-03-07T08:32:09.934Z,23.55
2023-03-07T08:33:07.600Z,23.55
2023-03-07T08:34:08.565Z,23.56
2023-03-07T08:35:08.556Z,23.59
2023-03-07T08:36:08.621Z,23.59
2023-03-07T08:37:08.533Z,23.60
2023-03-07T08:38:08.536Z,23.60
2023-03-07T08:39:08.537Z,23.61
2023-03-07T08:40:08.522Z,23.62
2023-03-07T08:41:08.522Z,23.64
2023-03-07T08:42:08.588Z,23.65
2023-03-07T08:43:08.579Z,23.66
2023-03-07T08:44:07.505Z,23.67
2023-03-07T08:45:08.477Z,23.71
2023-03-07T08:46:08.542Z,23.69
2023-03-07T08:47:08.470Z,23.69
2023-03-07T08:48:08.472Z,23.67
2023-03-07T08:49:08.503Z,23.66
2023-03-07T08:50:07.460Z,23.67
2023-03-07T08:51:08.446Z,23.66
2023-03-07T08:52:08.598Z,23.65
2023-03-07T08:53:08.417Z,23.65
2023-03-07T08:54:08.428Z,23.73
2023-03-07T08:55:08.433Z,23.75
2023-03-07T08:56:08.454Z,23.77
2023-03-07T08:57:08.425Z,23.78
2023-03-07T08:58:08.384Z,23.84
2023-03-07T08:59:07.420Z,23.86
2023-03-07T09:00:08.391Z,23.87
2023-03-07T09:01:07.385Z,23.88
2023-03-07T09:02:07.398Z,23.91
2023-03-07T09:03:07.360Z,23.95
2023-03-07T09:04:08.382Z,23.93
2023-03-07T09:05:08.655Z,23.93
2023-03-07T09:06:07.482Z,23.94
2023-03-07T09:07:08.583Z,23.95
2023-03-07T09:08:08.609Z,23.97
2023-03-07T09:09:08.781Z,23.98
2023-03-07T09:10:08.717Z,24.00
2023-03-07T09:11:07.730Z,24.01
2023-03-07T09:12:08.778Z,24.02
2023-03-07T09:13:07.801Z,24.04
2023-03-07T09:14:08.848Z,24.05
2023-03-07T09:15:08.906Z,24.09
2023-03-07T09:16:08.951Z,24.09
2023-03-07T09:17:07.945Z,24.08
2023-03-07T09:18:07.982Z,24.07
2023-03-07T09:19:09.041Z,24.06
2023-03-07T09:20:09.086Z,24.05
2023-03-07T09:21:09.199Z,24.05
2023-03-07T09:22:08.246Z,24.05
2023-03-07T09:23:09.264Z,24.06
2023-03-07T09:24:09.242Z,24.08
2023-03-07T09:25:09.250Z,24.09
2023-03-07T09:26:09.272Z,24.09
2023-03-07T09:27:09.283Z,24.10
2023-03-07T09:28:09.320Z,24.10
2023-03-07T09:29:08.353Z,24.13
2023-03-07T09:30:08.400Z,24.12
2023-03-07T09:31:08.480Z,24.10
2023-03-07T09:32:09.477Z,24.11
2023-03-07T09:33:09.479Z,24.11
2023-03-07T09:34:09.512Z,24.11
2023-03-07T09:35:09.537Z,24.13
2023-03-07T09:36:09.568Z,24.14
2023-03-07T09:37:09.607Z,24.14
2023-03-07T09:38:09.625Z,24.14
2023-03-07T09:39:08.680Z,24.16
2023-03-07T09:40:09.720Z,24.17
2023-03-07T09:41:08.754Z,24.21
2023-03-07T09:42:08.747Z,24.21
2023-03-07T09:43:08.770Z,24.20
2023-03-07T09:44:10.031Z,24.20
2023-03-07T09:45:08.816Z,24.18
2023-03-07T09:46:09.893Z,24.17
2023-03-07T09:47:09.916Z,24.18
2023-03-07T09:48:08.878Z,24.17
2023-03-07T09:49:09.914Z,24.15
2023-03-07T09:50:09.985Z,24.13
2023-03-07T09:51:11.934Z,24.10
2023-03-07T09:52:10.387Z,24.08
2023-03-07T09:53:09.975Z,24.06
2023-03-07T09:54:10.061Z,24.04
2023-03-07T09:55:09.022Z,24.07
2023-03-07T09:56:09.985Z,24.06
2023-03-07T09:57:10.015Z,24.06
2023-03-07T09:58:09.954Z,24.05
2023-03-07T09:59:21.933Z,24.05
2023-03-07T10:00:10.074Z,24.04
2023-03-07T10:01:08.936Z,24.05
2023-03-07T10:02:08.931Z,24.06
2023-03-07T10:03:08.976Z,24.08
2023-03-07T10:04:10.006Z,24.10
2023-03-07T10:05:10.131Z,24.16
2023-03-07T10:06:08.898Z,24.19
2023-03-07T10:07:09.896Z,24.21
2023-03-07T10:08:09.890Z,24.21
2023-03-07T10:09:08.920Z,24.23
2023-03-07T10:10:09.870Z,24.24
2023-03-07T10:11:09.856Z,24.27
2023-03-07T10:12:09.850Z,24.28
2023-03-07T10:13:09.858Z,24.29
2023-03-07T10:14:09.836Z,24.36
2023-03-07T10:15:08.842Z,24.37
2023-03-07T10:16:09.879Z,24.43
2023-03-07T10:17:08.833Z,24.43
2023-03-07T10:18:09.818Z,24.48
2023-03-07T10:19:09.841Z,24.47
2023-03-07T10:20:08.803Z,24.48
2023-03-07T10:21:09.798Z,24.50
2023-03-07T10:22:09.789Z,24.50
2023-03-07T10:23:08.792Z,24.49
2023-03-07T10:24:08.783Z,24.53
2023-03-07T10:25:08.786Z,24.55
2023-03-07T10:26:09.766Z,24.55
2023-03-07T10:27:08.754Z,24.57
2023-03-07T10:28:09.758Z,24.58
2023-03-07T10:29:09.731Z,24.56
2023-03-07T10:30:09.741Z,24.55
2023-03-07T10:31:09.741Z,24.63
2023-03-07T10:32:09.877Z,24.63
2023-03-07T10:33:09.712Z,24.62
2023-03-07T10:34:12.205Z,24.61
2023-03-07T10:35:09.730Z,24.61
2023-03-07T10:36:08.822Z,24.68
2023-03-07T10:37:09.666Z,24.67
2023-03-07T10:38:09.671Z,24.69
2023-03-07T10:39:09.657Z,24.64
2023-03-07T10:40:08.666Z,24.62
2023-03-07T10:41:09.650Z,24.63
2023-03-07T10:42:09.652Z,24.61
2023-03-07T10:43:09.634Z,24.58
2023-03-07T10:44:09.637Z,24.58
2023-03-07T10:45:11.165Z,24.54
2023-03-07T10:46:23.974Z,24.51
2023-03-07T10:47:09.665Z,24.48
2023-03-07T10:48:09.614Z,24.48
2023-03-07T10:49:10.683Z,24.46
2023-03-07T10:50:10.065Z,24.40
2023-03-07T10:51:09.605Z,24.36
2023-03-07T10:52:09.579Z,24.33
2023-03-07T10:53:09.575Z,24.28
2023-03-07T10:54:09.617Z,24.25
2023-03-07T10:55:08.669Z,24.21
2023-03-07T10:56:09.724Z,24.18
2023-03-07T10:57:09.824Z,24.15
2023-03-07T10:58:09.856Z,24.11
2023-03-07T10:59:09.877Z,24.10
2023-03-07T11:00:09.962Z,24.09
2023-03-07T11:01:10.067Z,24.08
2023-03-07T11:02:10.083Z,24.06
2023-03-07T11:03:10.190Z,24.05
2023-03-07T11:04:10.247Z,24.03
2023-03-07T11:05:09.342Z,24.03
2023-03-07T11:06:10.327Z,24.03
2023-03-07T11:07:10.424Z,24.02
2023-03-07T11:08:10.487Z,24.00
2023-03-07T11:09:09.495Z,24.00
2023-03-07T11:10:10.559Z,23.99
2023-03-07T11:11:10.630Z,23.97
2023-03-07T11:12:10.683Z,23.96
2023-03-07T11:13:10.746Z,23.95
2023-03-07T11:14:12.763Z,23.95
2023-03-07T11:15:10.818Z,23.94
2023-03-07T11:16:11.670Z,23.94
2023-03-07T11:17:10.845Z,23.93
2023-03-07T11:18:10.783Z,23.92
2023-03-07T11:19:10.796Z,23.93
2023-03-07T11:20:10.773Z,23.93
2023-03-07T11:21:09.781Z,23.93
2023-03-07T11:22:10.777Z,23.92
2023-03-07T11:23:10.858Z,23.92
2023-03-07T11:24:10.947Z,23.91
2023-03-07T11:25:10.978Z,23.92
2023-03-07T11:26:10.024Z,23.92
2023-03-07T11:27:11.085Z,23.91
2023-03-07T11:28:11.133Z,23.92
2023-03-07T11:29:11.201Z,23.93
2023-03-07T11:30:11.269Z,23.92
2023-03-07T11:31:11.331Z,23.92
2023-03-07T11:32:11.440Z,23.92
2023-03-07T11:33:11.430Z,23.92
2023-03-07T11:34:11.477Z,23.93
2023-03-07T11:35:11.539Z,23.93
2023-03-07T11:36:11.606Z,23.92
2023-03-07T11:37:11.677Z,23.92
2023-03-07T11:38:11.744Z,23.91
2023-03-07T11:39:11.830Z,23.92
2023-03-07T11:40:10.872Z,23.91
2023-03-07T11:41:10.928Z,23.91
2023-03-07T11:42:11.977Z,23.90
2023-03-07T11:43:12.051Z,23.90
2023-03-07T11:44:11.101Z,23.90
2023-03-07T11:45:12.567Z,23.89
2023-03-07T11:46:11.278Z,23.90
2023-03-07T11:47:12.292Z,23.90
2023-03-07T11:48:12.331Z,23.90
2023-03-07T11:49:12.383Z,23.90
2023-03-07T11:50:11.429Z,23.89
2023-03-07T11:51:12.437Z,23.87
2023-03-07T11:52:12.467Z,23.88
2023-03-07T11:53:11.637Z,23.87
2023-03-07T11:54:12.557Z,23.87
2023-03-07T11:55:11.611Z,23.86
2023-03-07T11:56:12.628Z,23.85
2023-03-07T11:57:12.656Z,23.84
2023-03-07T11:58:11.681Z,23.83
2023-03-07T11:59:12.709Z,23.82
2023-03-07T12:00:11.753Z,23.81
2023-03-07T12:01:12.777Z,23.79
2023-03-07T12:02:11.807Z,23.79
2023-03-07T12:03:12.899Z,23.78
2023-03-07T12:04:11.914Z,23.77
2023-03-07T12:05:12.917Z,23.78
2023-03-07T12:06:12.952Z,23.77
2023-03-07T12:07:11.998Z,23.77
2023-03-07T12:08:13.040Z,23.77
2023-03-07T12:09:13.085Z,23.77
2023-03-07T12:10:13.149Z,23.78
2023-03-07T12:11:13.207Z,23.79
2023-03-07T12:12:12.211Z,23.78
2023-03-07T12:13:13.293Z,23.84
2023-03-07T12:14:13.309Z,23.86
2023-03-07T12:15:13.346Z,23.86
2023-03-07T12:16:12.436Z,23.85
2023-03-07T12:17:13.382Z,23.84
2023-03-07T12:18:13.399Z,23.84
2023-03-07T12:19:12.464Z,23.83
2023-03-07T12:20:13.710Z,23.88
2023-03-07T12:21:13.515Z,23.91
2023-03-07T12:22:13.513Z,23.89
2023-03-07T12:23:13.520Z,23.89
2023-03-07T12:24:13.537Z,23.86
2023-03-07T12:25:13.566Z,23.85
2023-03-07T12:26:13.559Z,23.84
2023-03-07T12:27:13.651Z,23.84
2023-03-07T12:28:13.592Z,23.92
2023-03-07T12:29:13.582Z,23.93
2023-03-07T12:30:13.701Z,23.90
2023-03-07T12:31:13.621Z,23.88
2023-03-07T12:32:12.754Z,23.87
2023-03-07T12:33:13.723Z,23.86
2023-03-07T12:34:13.570Z,23.86
2023-03-07T12:35:13.564Z,23.87
2023-03-07T12:36:13.685Z,23.88
2023-03-07T12:37:13.569Z,23.88
2023-03-07T12:38:13.572Z,23.91
2023-03-07T12:39:13.571Z,23.90
2023-03-07T12:40:13.696Z,23.87
2023-03-07T12:41:13.553Z,23.88
2023-03-07T12:42:12.546Z,23.86
2023-03-07T12:43:13.649Z,23.85
2023-03-07T12:44:12.569Z,23.83
2023-03-07T12:45:12.574Z,23.83
2023-03-07T12:46:13.583Z,23.82
2023-03-07T12:47:12.554Z,23.80
2023-03-07T12:48:13.547Z,23.78
2023-03-07T12:49:13.540Z,23.77
2023-03-07T12:50:12.640Z,23.78
2023-03-07T12:51:12.556Z,23.77
2023-03-07T12:52:13.546Z,23.76
2023-03-07T12:53:12.547Z,23.76
2023-03-07T12:54:13.527Z,23.75
2023-03-07T12:55:13.544Z,23.75
2023-03-07T12:56:13.549Z,23.75
2023-03-07T12:57:13.552Z,23.74
2023-03-07T12:58:12.572Z,23.73
2023-03-07T12:59:13.664Z,23.72
2023-03-07T13:00:12.708Z,23.72
2023-03-07T13:01:12.705Z,23.71
2023-03-07T13:02:13.639Z,23.71
2023-03-07T13:03:12.658Z,23.70
2023-03-07T13:04:13.693Z,23.69
2023-03-07T13:05:12.690Z,23.69
2023-03-07T13:06:13.663Z,23.68
2023-03-07T13:07:12.677Z,23.67
2023-03-07T13:08:13.686Z,23.67
2023-03-07T13:09:13.703Z,23.67
2023-03-07T13:10:12.721Z,23.66
2023-03-07T13:11:12.809Z,23.65
2023-03-07T13:12:13.782Z,23.65
2023-03-07T13:13:13.798Z,23.65
2023-03-07T13:14:13.840Z,23.64
2023-03-07T13:15:13.885Z,23.65
2023-03-07T13:16:13.937Z,23.64
2023-03-07T13:17:12.894Z,23.64
2023-03-07T13:18:12.924Z,23.63
2023-03-07T13:19:12.921Z,23.62
2023-03-07T13:20:13.941Z,23.63
2023-03-07T13:21:13.958Z,23.63
2023-03-07T13:22:12.963Z,23.69
2023-03-07T13:23:14.037Z,23.68
2023-03-07T13:24:13.964Z,23.68
2023-03-07T13:25:13.969Z,23.68
2023-03-07T13:26:13.983Z,23.67
2023-03-07T13:27:13.979Z,23.67
2023-03-07T13:28:13.993Z,23.68
2023-03-07T13:29:13.994Z,23.69
2023-03-07T13:30:13.991Z,23.70
2023-03-07T13:31:13.136Z,23.71
2023-03-07T13:32:13.102Z,23.71
2023-03-07T13:33:13.968Z,23.73
2023-03-07T13:34:13.976Z,23.72
2023-03-07T13:35:12.967Z,23.72
2023-03-07T13:36:13.976Z,23.80
2023-03-07T13:37:13.983Z,23.80
2023-03-07T13:38:13.977Z,23.80
2023-03-07T13:39:12.991Z,23.82
2023-03-07T13:40:14.029Z,23.86
2023-03-07T13:41:14.112Z,23.89
2023-03-07T13:42:13.159Z,23.93
2023-03-07T13:43:13.219Z,24.02
2023-03-07T13:44:13.287Z,24.03
2023-03-07T13:45:14.334Z,24.04
2023-03-07T13:46:14.462Z,24.07
2023-03-07T13:47:14.453Z,24.08
2023-03-07T13:48:14.457Z,24.09
2023-03-07T13:49:14.495Z,24.10
2023-03-07T13:50:14.538Z,24.10
2023-03-07T13:51:14.568Z,24.12
2023-03-07T13:52:14.601Z,24.13
2023-03-07T13:53:14.639Z,24.14
2023-03-07T13:54:14.667Z,24.14
2023-03-07T13:55:13.708Z,24.15
2023-03-07T13:56:14.772Z,24.18
2023-03-07T13:57:14.796Z,24.17
2023-03-07T13:58:14.827Z,24.16
2023-03-07T13:59:14.866Z,24.17
2023-03-07T14:00:14.888Z,24.18
2023-03-07T14:01:14.992Z,24.20
2023-03-07T14:02:13.928Z,24.22
2023-03-07T14:03:15.091Z,24.23
2023-03-07T14:04:14.957Z,24.24
2023-03-07T14:05:13.972Z,24.25
2023-03-07T14:06:14.997Z,24.26
2023-03-07T14:07:15.023Z,24.29
2023-03-07T14:08:15.020Z,24.37
2023-03-07T14:09:14.040Z,24.38
2023-03-07T14:10:21.846Z,24.38
2023-03-07T14:11:15.007Z,24.38
2023-03-07T14:12:13.997Z,24.39
2023-03-07T14:13:14.995Z,24.40
2023-03-07T14:14:15.859Z,24.46
2023-03-07T14:15:14.615Z,24.45
2023-03-07T14:16:15.062Z,24.45
2023-03-07T14:17:13.961Z,24.43
2023-03-07T14:18:13.956Z,24.44
2023-03-07T14:19:13.983Z,24.48
2023-03-07T14:20:14.952Z,24.49
2023-03-07T14:21:14.954Z,24.48
2023-03-07T14:22:14.924Z,24.48
2023-03-07T14:23:14.935Z,24.47
2023-03-07T14:24:14.911Z,24.46
2023-03-07T14:25:15.662Z,24.48
2023-03-07T14:26:14.916Z,24.47
2023-03-07T14:27:14.896Z,24.46
2023-03-07T14:28:14.896Z,24.46
2023-03-07T14:29:14.898Z,24.46
2023-03-07T14:30:14.872Z,24.45
2023-03-07T14:31:14.944Z,24.45
2023-03-07T14:32:13.890Z,24.44
2023-03-07T14:33:14.859Z,24.45
2023-03-07T14:34:13.854Z,24.45
2023-03-07T14:35:14.861Z,24.43
2023-03-07T14:36:13.941Z,24.43
2023-03-07T14:37:14.836Z,24.43
2023-03-07T14:38:14.834Z,24.42
2023-03-07T14:39:14.809Z,24.42
2023-03-07T14:40:14.812Z,24.42
2023-03-07T14:41:13.796Z,24.42
2023-03-07T14:42:13.808Z,24.42
2023-03-07T14:43:14.796Z,24.42
2023-03-07T14:44:14.795Z,24.43
2023-03-07T14:45:13.783Z,24.42
2023-03-07T14:46:14.785Z,24.42
2023-03-07T14:47:14.789Z,24.42
2023-03-07T14:48:13.757Z,24.43
2023-03-07T14:49:14.747Z,24.43
2023-03-07T14:50:13.750Z,24.45
2023-03-07T14:51:14.759Z,24.47
2023-03-07T14:52:29.684Z,24.47
2023-03-07T14:53:14.726Z,24.47
2023-03-07T14:54:14.723Z,24.49
2023-03-07T14:55:14.720Z,24.51
2023-03-07T14:56:13.723Z,24.50
2023-03-07T14:57:14.690Z,24.50
2023-03-07T14:58:14.698Z,24.51
2023-03-07T14:59:27.681Z,24.50
2023-03-07T15:00:14.690Z,24.52
2023-03-07T15:01:14.697Z,24.51
2023-03-07T15:02:14.705Z,24.52
2023-03-07T15:03:14.663Z,24.58
2023-03-07T15:04:14.741Z,24.63
2023-03-07T15:05:14.644Z,24.63
2023-03-07T15:06:14.646Z,24.64
2023-03-07T15:07:13.797Z,24.65
2023-03-07T15:08:14.626Z,24.76
2023-03-07T15:09:14.622Z,24.76
2023-03-07T15:10:14.635Z,24.79
2023-03-07T15:11:13.608Z,24.83
2023-03-07T15:12:13.599Z,24.90
2023-03-07T15:13:14.600Z,24.90
2023-03-07T15:14:14.577Z,24.92
2023-03-07T15:15:14.582Z,24.89
2023-03-07T15:16:13.628Z,24.83
2023-03-07T15:17:14.581Z,24.80
2023-03-07T15:18:14.567Z,24.75
2023-03-07T15:19:14.564Z,24.70
2023-03-07T15:20:14.546Z,24.67
2023-03-07T15:21:14.548Z,24.65
2023-03-07T15:22:14.567Z,24.62
2023-03-07T15:23:14.552Z,24.58
2023-03-07T15:24:14.539Z,24.56
2023-03-07T15:25:13.526Z,24.51
2023-03-07T15:26:14.518Z,24.49
2023-03-07T15:27:14.515Z,24.47
2023-03-07T15:28:14.511Z,24.46
2023-03-07T15:29:13.490Z,24.45
2023-03-07T15:30:14.483Z,24.42
2023-03-07T15:31:14.581Z,24.41
2023-03-07T15:32:14.522Z,24.40
2023-03-07T15:33:14.473Z,24.41
2023-03-07T15:34:13.492Z,24.40
2023-03-07T15:35:14.483Z,24.39
2023-03-07T15:36:13.495Z,24.38
2023-03-07T15:37:14.447Z,24.39
2023-03-07T15:38:13.431Z,24.38
2023-03-07T15:39:14.471Z,24.38
2023-03-07T15:40:14.420Z,24.37
2023-03-07T15:41:14.428Z,24.36
2023-03-07T15:42:14.404Z,24.34
2023-03-07T15:43:13.405Z,24.33
2023-03-07T15:44:14.445Z,24.33
2023-03-07T15:45:14.393Z,24.32
2023-03-07T15:46:14.444Z,24.31
2023-03-07T15:47:13.386Z,24.36
2023-03-07T15:48:13.377Z,24.42
2023-03-07T15:49:14.375Z,24.38
2023-03-07T15:50:14.367Z,24.38
2023-03-07T15:51:14.403Z,24.35
2023-03-07T15:52:14.420Z,24.34
2023-03-07T15:53:13.456Z,24.30
2023-03-07T15:54:14.518Z,24.30
2023-03-07T15:55:13.579Z,24.26
2023-03-07T15:56:13.582Z,24.21
2023-03-07T15:57:13.611Z,24.16
2023-03-07T15:58:14.635Z,24.17
2023-03-07T15:59:14.674Z,24.16
2023-03-07T16:00:13.664Z,24.12
2023-03-07T16:01:13.666Z,24.08
2023-03-07T16:02:14.658Z,24.04
2023-03-07T16:03:14.814Z,24.01
2023-03-07T16:04:14.675Z,23.96
2023-03-07T16:05:14.688Z,23.91
2023-03-07T16:06:14.727Z,23.89
2023-03-07T16:07:14.751Z,23.87
2023-03-07T16:08:13.769Z,23.86
2023-03-07T16:09:14.782Z,23.81
2023-03-07T16:10:13.802Z,23.78
2023-03-07T16:11:14.884Z,23.75
2023-03-07T16:12:13.941Z,23.75
2023-03-07T16:13:14.950Z,23.77
2023-03-07T16:14:14.942Z,23.78
2023-03-07T16:15:14.963Z,23.75
2023-03-07T16:16:14.037Z,23.73
2023-03-07T16:17:14.996Z,23.69
2023-03-07T16:18:15.003Z,23.65
2023-03-07T16:19:15.005Z,23.61
2023-03-07T16:20:15.017Z,23.58
2023-03-07T16:21:15.014Z,23.55
2023-03-07T16:22:15.027Z,23.53
2023-03-07T16:23:15.014Z,23.50
2023-03-07T16:24:15.050Z,23.49
2023-03-07T16:25:15.087Z,23.48
2023-03-07T16:26:15.143Z,23.47
2023-03-07T16:27:15.236Z,23.45
2023-03-07T16:28:14.261Z,23.43
2023-03-07T16:29:15.341Z,23.41
